Time;durP1;ratioP1;P1;durP2;ratioP2;P2;SDS_P1;SDS_P2;PMS_P1;PMS_P2;Temp;Humidity;BMP_temperature;BMP_pressure;BME280_temperature;BME280_humidity;BME280_pressure;Samples;Min_cycle;Max_cycle;Signal;HPM_P1;HPM_P2
2021/06/26 00:01:42;;;;;;;16.50;11.80;;;18.30;99.90;;;;;;5053127;28;20181;-80
2021/06/26 00:04:10;;;;;;;13.93;11.60;;;18.60;99.90;;;;;;5053771;28;20176;-80
2021/06/26 00:06:36;;;;;;;15.17;12.23;;;18.60;99.90;;;;;;5053446;28;20250;-78
2021/06/26 00:09:02;;;;;;;14.53;11.57;;;18.60;99.90;;;;;;5053549;28;20633;-79
2021/06/26 00:11:28;;;;;;;13.60;11.80;;;18.60;99.90;;;;;;5053345;28;20181;-79
2021/06/26 00:13:53;;;;;;;14.33;11.67;;;18.80;99.90;;;;;;5053397;28;20676;-80
2021/06/26 00:16:19;;;;;;;14.67;12.33;;;18.80;99.90;;;;;;5053732;28;20539;-79
2021/06/26 00:18:45;;;;;;;15.27;12.60;;;18.80;99.90;;;;;;5053453;28;20538;-78
2021/06/26 00:21:10;;;;;;;13.87;11.90;;;18.60;99.90;;;;;;5053003;28;20532;-80
2021/06/26 00:23:36;;;;;;;13.87;12.43;;;18.50;99.90;;;;;;5053025;28;20178;-79
2021/06/26 00:26:02;;;;;;;13.60;12.10;;;18.60;99.90;;;;;;5053699;28;20319;-78
2021/06/26 00:28:27;;;;;;;13.07;11.67;;;18.50;99.90;;;;;;5053406;28;20170;-78
2021/06/26 00:30:53;;;;;;;15.23;12.20;;;18.50;99.90;;;;;;5053645;28;20177;-78
2021/06/26 00:33:19;;;;;;;14.20;12.70;;;18.40;99.90;;;;;;5053327;28;20186;-79
2021/06/26 00:35:44;;;;;;;15.73;12.93;;;18.50;99.90;;;;;;5054573;28;20178;-79
2021/06/26 00:38:10;;;;;;;16.00;12.83;;;18.50;99.90;;;;;;5057189;28;20626;-79
2021/06/26 00:40:36;;;;;;;15.27;12.57;;;18.60;99.90;;;;;;5057429;28;20169;-79
2021/06/26 00:43:02;;;;;;;14.87;13.27;;;18.60;99.90;;;;;;5057487;28;20579;-79
2021/06/26 00:45:27;;;;;;;15.73;13.83;;;18.80;99.90;;;;;;5056041;28;20216;-78
2021/06/26 00:47:53;;;;;;;16.97;13.53;;;18.70;99.90;;;;;;5057178;28;20252;-80
2021/06/26 00:50:26;;;;;;;14.93;12.83;;;18.70;99.90;;;;;;5057390;28;20624;-80
2021/06/26 00:52:52;;;;;;;16.87;13.13;;;18.80;99.90;;;;;;5057627;28;20166;-79
2021/06/26 00:55:19;;;;;;;13.53;12.00;;;18.80;99.90;;;;;;5062191;28;20186;-78
2021/06/26 00:57:50;;;;;;;15.03;12.80;;;18.70;99.90;;;;;;5069733;28;20183;-77
2021/06/26 01:00:17;;;;;;;13.30;11.67;;;18.70;99.90;;;;;;5063484;28;20172;-79
2021/06/26 01:02:42;;;;;;;15.20;12.77;;;18.80;99.90;;;;;;5072575;28;20169;-76
2021/06/26 01:05:10;;;;;;;15.27;11.30;;;18.90;99.90;;;;;;5067155;28;20233;-80
2021/06/26 01:07:36;;;;;;;15.57;12.27;;;18.90;99.90;;;;;;5057646;28;20180;-80
2021/06/26 01:10:03;;;;;;;17.07;13.07;;;18.90;99.90;;;;;;5057617;28;20676;-79
2021/06/26 01:12:29;;;;;;;15.47;12.33;;;18.90;99.90;;;;;;5057164;28;20195;-80
2021/06/26 01:14:55;;;;;;;14.97;12.80;;;18.90;99.90;;;;;;5057056;28;20221;-80
2021/06/26 01:17:20;;;;;;;16.17;12.00;;;19.00;99.90;;;;;;5066718;28;20252;-81
2021/06/26 01:19:46;;;;;;;16.43;13.17;;;19.00;99.70;;;;;;5068322;28;20172;-79
2021/06/26 01:22:15;;;;;;;14.80;12.73;;;18.90;99.90;;;;;;5063718;28;20169;-78
2021/06/26 01:24:41;;;;;;;15.10;13.03;;;18.90;99.90;;;;;;5075692;28;20212;-78
2021/06/26 01:27:07;;;;;;;15.40;12.50;;;19.00;99.90;;;;;;5075120;28;20165;-78
2021/06/26 01:29:33;;;;;;;15.30;12.77;;;18.90;99.90;;;;;;5057285;28;20577;-79
2021/06/26 01:31:59;;;;;;;14.17;12.43;;;18.90;99.90;;;;;;5058356;28;20188;-79
2021/06/26 01:34:25;;;;;;;15.03;13.13;;;19.00;99.90;;;;;;5060019;28;20174;-78
2021/06/26 01:36:52;;;;;;;12.70;10.90;;;18.90;99.70;;;;;;5069277;28;20770;-80
2021/06/26 01:39:18;;;;;;;11.80;10.60;;;18.70;99.70;;;;;;5066422;28;20224;-79
2021/06/26 01:41:44;;;;;;;10.93;8.63;;;18.70;99.70;;;;;;5065908;28;20188;-80
2021/06/26 01:44:09;;;;;;;9.77;8.43;;;18.50;99.50;;;;;;5069930;28;20169;-80
2021/06/26 01:46:38;;;;;;;8.93;7.60;;;18.30;99.70;;;;;;5068329;28;20625;-75
2021/06/26 01:49:09;;;;;;;10.37;8.53;;;18.40;99.70;;;;;;5062983;28;20265;-79
2021/06/26 01:51:36;;;;;;;11.53;9.50;;;18.20;99.90;;;;;;5066532;28;20187;-73
2021/06/26 01:54:10;;;;;;;11.30;9.03;;;18.10;99.90;;;;;;5075774;28;20168;-74
2021/06/26 01:56:36;;;;;;;11.13;9.00;;;18.10;99.90;;;;;;5070766;28;20196;-78
2021/06/26 01:59:03;;;;;;;10.23;8.33;;;18.20;99.90;;;;;;5063724;28;20172;-80
2021/06/26 02:01:29;;;;;;;9.47;8.00;;;18.20;99.90;;;;;;5063272;28;20244;-78
2021/06/26 02:03:54;;;;;;;10.43;9.30;;;18.10;99.90;;;;;;5061766;28;20228;-75
2021/06/26 02:06:21;;;;;;;10.67;9.00;;;18.20;99.90;;;;;;5061652;28;20661;-80
2021/06/26 02:08:47;;;;;;;11.53;9.07;;;18.20;99.90;;;;;;5057670;28;20157;-79
2021/06/26 02:11:12;;;;;;;10.73;8.63;;;18.20;99.90;;;;;;5057140;28;20694;-81
2021/06/26 02:13:39;;;;;;;14.53;10.03;;;18.20;99.90;;;;;;5056223;28;20225;-79
2021/06/26 02:16:05;;;;;;;12.13;9.17;;;18.20;99.90;;;;;;5055712;28;20702;-80
2021/06/26 02:18:30;;;;;;;9.90;8.90;;;18.30;99.90;;;;;;5055362;28;20165;-80
2021/06/26 02:20:56;;;;;;;11.50;8.67;;;18.40;99.90;;;;;;5055292;28;20167;-80
2021/06/26 02:23:22;;;;;;;11.17;8.93;;;18.40;99.90;;;;;;5055170;28;20199;-80
2021/06/26 02:25:47;;;;;;;11.60;9.73;;;18.40;99.90;;;;;;5055399;28;20212;-75
2021/06/26 02:28:13;;;;;;;10.23;9.13;;;18.20;99.90;;;;;;5055228;28;20169;-79
2021/06/26 02:30:39;;;;;;;11.17;9.33;;;18.20;99.90;;;;;;5054868;28;20172;-77
2021/06/26 02:33:04;;;;;;;12.87;10.20;;;18.20;99.90;;;;;;5054745;28;20184;-74
2021/06/26 02:35:30;;;;;;;14.67;10.47;;;18.40;99.90;;;;;;5054904;28;20514;-77
2021/06/26 02:37:57;;;;;;;10.40;9.40;;;18.40;99.90;;;;;;5055067;28;20173;-78
2021/06/26 02:40:23;;;;;;;9.90;8.53;;;18.40;99.90;;;;;;5060715;28;20204;-75
2021/06/26 02:42:49;;;;;;;9.53;8.00;;;18.50;99.90;;;;;;5068753;28;20169;-80
2021/06/26 02:45:15;;;;;;;8.60;7.43;;;18.40;99.90;;;;;;5054511;28;20664;-81
2021/06/26 02:47:41;;;;;;;10.10;8.27;;;18.30;99.90;;;;;;5054787;28;20153;-74
2021/06/26 02:50:09;;;;;;;9.50;8.13;;;18.20;99.90;;;;;;5054643;28;20169;-78
2021/06/26 02:52:35;;;;;;;9.00;8.10;;;18.10;99.90;;;;;;5054854;28;20169;-79
2021/06/26 02:55:01;;;;;;;10.07;8.43;;;18.10;99.90;;;;;;5054553;28;20183;-78
2021/06/26 02:57:26;;;;;;;8.70;7.43;;;18.10;99.90;;;;;;5055015;28;20257;-80
2021/06/26 02:59:52;;;;;;;7.47;6.43;;;18.10;99.90;;;;;;5052806;28;20226;-79
2021/06/26 03:02:18;;;;;;;8.33;7.40;;;17.90;99.90;;;;;;5052952;28;20653;-78
2021/06/26 03:04:44;;;;;;;8.43;7.00;;;18.00;99.90;;;;;;5054436;28;20300;-74
2021/06/26 03:07:10;;;;;;;8.97;7.47;;;18.00;99.90;;;;;;5053182;28;20625;-81
2021/06/26 03:09:36;;;;;;;8.97;8.07;;;17.90;99.90;;;;;;5065911;28;20196;-80
2021/06/26 03:12:02;;;;;;;11.97;9.40;;;17.70;99.90;;;;;;5073222;28;20153;-79
2021/06/26 03:14:28;;;;;;;11.80;9.43;;;17.50;99.90;;;;;;5070153;28;20154;-78
2021/06/26 03:16:53;;;;;;;9.57;8.30;;;17.50;99.90;;;;;;5069594;28;20176;-79
2021/06/26 03:19:19;;;;;;;9.20;8.03;;;17.40;99.90;;;;;;5069102;28;20169;-77
2021/06/26 03:21:44;;;;;;;8.70;7.63;;;17.30;99.90;;;;;;5067008;28;20202;-74
2021/06/26 03:24:10;;;;;;;9.53;7.10;;;17.30;99.90;;;;;;5064343;28;20264;-79
2021/06/26 03:26:39;;;;;;;10.00;7.37;;;17.10;99.90;;;;;;5056115;28;20173;-78
2021/06/26 03:29:05;;;;;;;10.17;8.00;;;17.10;99.90;;;;;;5052717;28;20639;-78
2021/06/26 03:31:37;;;;;;;9.53;8.53;;;17.00;99.90;;;;;;5053829;28;20206;-79
2021/06/26 03:34:02;;;;;;;9.53;8.50;;;17.10;99.90;;;;;;5053474;28;20177;-79
2021/06/26 03:36:28;;;;;;;9.83;7.50;;;17.10;99.90;;;;;;5053620;28;20279;-75
2021/06/26 03:38:54;;;;;;;8.23;6.50;;;17.10;99.90;;;;;;5053823;28;20635;-79
2021/06/26 03:41:26;;;;;;;6.67;4.77;;;17.00;99.90;;;;;;5053734;28;20165;-79
2021/06/26 03:43:53;;;;;;;8.07;5.47;;;16.90;99.90;;;;;;5053577;28;20173;-79
2021/06/26 03:46:19;;;;;;;6.93;5.60;;;16.90;99.90;;;;;;5053416;28;20214;-79
2021/06/26 03:48:45;;;;;;;6.40;5.03;;;16.90;99.90;;;;;;5053645;28;20176;-79
2021/06/26 03:51:11;;;;;;;6.10;5.00;;;16.90;99.90;;;;;;5054645;28;20239;-79
2021/06/26 03:53:36;;;;;;;6.57;5.27;;;16.90;99.90;;;;;;5053677;28;20248;-80
2021/06/26 03:56:02;;;;;;;7.57;6.07;;;17.10;99.90;;;;;;5057691;28;20257;-78
2021/06/26 03:58:28;;;;;;;6.97;6.27;;;17.10;99.90;;;;;;5054059;28;20181;-79
2021/06/26 04:00:56;;;;;;;10.13;7.63;;;17.20;99.90;;;;;;5051953;28;20215;-79
2021/06/26 04:03:23;;;;;;;9.07;7.37;;;17.30;99.90;;;;;;5054246;28;20165;-79
2021/06/26 04:05:49;;;;;;;7.70;6.37;;;17.20;99.90;;;;;;5053863;28;20231;-79
2021/06/26 04:08:15;;;;;;;7.43;6.67;;;17.20;99.90;;;;;;5053800;28;20161;-76
2021/06/26 04:10:42;;;;;;;11.03;6.90;;;17.10;99.90;;;;;;5054013;28;20629;-79
2021/06/26 04:13:08;;;;;;;10.37;7.83;;;17.10;99.90;;;;;;5053018;28;20177;-77
2021/06/26 04:15:34;;;;;;;8.63;7.20;;;17.30;99.90;;;;;;5054612;28;20605;-76
2021/06/26 04:18:02;;;;;;;10.07;7.67;;;17.30;99.90;;;;;;5054352;28;20199;-74
2021/06/26 04:20:27;;;;;;;8.07;6.00;;;17.50;99.90;;;;;;5057353;28;20196;-76
2021/06/26 04:22:54;;;;;;;7.30;6.10;;;17.60;99.90;;;;;;5057269;28;20231;-81
2021/06/26 04:25:20;;;;;;;8.20;6.27;;;17.50;99.90;;;;;;5051969;28;20226;-78
2021/06/26 04:27:46;;;;;;;7.03;5.90;;;17.50;99.90;;;;;;5052205;28;20173;-78
2021/06/26 04:30:13;;;;;;;7.67;6.17;;;17.50;99.90;;;;;;5054375;28;20512;-80
2021/06/26 04:32:40;;;;;;;8.07;6.33;;;17.40;99.90;;;;;;5054769;28;20189;-75
2021/06/26 04:35:11;;;;;;;9.27;6.77;;;17.30;99.90;;;;;;5053071;28;20256;-74
2021/06/26 04:37:36;;;;;;;7.03;5.70;;;17.30;99.90;;;;;;5052986;28;20166;-80
2021/06/26 04:40:04;;;;;;;7.70;5.73;;;17.30;99.90;;;;;;5054813;28;20195;-80
2021/06/26 04:42:29;;;;;;;6.30;5.37;;;17.30;99.90;;;;;;5054098;28;20208;-78
2021/06/26 04:44:56;;;;;;;7.83;7.03;;;17.30;99.90;;;;;;5056047;28;20688;-78
2021/06/26 04:47:23;;;;;;;7.93;7.13;;;17.20;99.90;;;;;;5060752;28;20173;-77
2021/06/26 04:49:49;;;;;;;9.27;7.37;;;17.10;99.90;;;;;;5063844;28;20181;-77
2021/06/26 04:52:15;;;;;;;9.60;7.87;;;17.10;99.90;;;;;;5058163;28;20651;-75
2021/06/26 04:54:40;;;;;;;8.80;7.60;;;17.10;99.90;;;;;;5058346;28;20558;-77
2021/06/26 04:57:06;;;;;;;9.33;7.83;;;17.20;99.90;;;;;;5053500;28;20176;-79
2021/06/26 04:59:33;;;;;;;7.27;6.50;;;17.10;99.90;;;;;;5053696;28;20187;-80
2021/06/26 05:01:59;;;;;;;9.33;7.17;;;17.20;99.90;;;;;;5054370;28;20165;-80
2021/06/26 05:04:24;;;;;;;6.37;5.17;;;17.20;99.90;;;;;;5058638;28;20177;-81
2021/06/26 05:06:50;;;;;;;6.97;5.17;;;17.20;99.90;;;;;;5060230;28;20174;-79
2021/06/26 05:09:16;;;;;;;7.77;4.80;;;17.20;99.90;;;;;;5060364;28;20169;-77
2021/06/26 05:11:42;;;;;;;6.67;4.90;;;17.20;99.90;;;;;;5059213;28;20652;-80
2021/06/26 05:14:09;;;;;;;8.13;6.70;;;17.20;99.90;;;;;;5063932;28;20169;-74
2021/06/26 05:16:35;;;;;;;8.80;7.33;;;17.10;99.90;;;;;;5058930;28;20172;-77
2021/06/26 05:19:01;;;;;;;7.77;5.93;;;17.10;99.90;;;;;;5054752;28;20173;-81
2021/06/26 05:21:26;;;;;;;6.33;4.87;;;17.20;99.90;;;;;;5071736;28;20165;-73
2021/06/26 05:23:52;;;;;;;7.57;5.60;;;17.20;99.90;;;;;;5075335;28;20187;-79
2021/06/26 05:26:17;;;;;;;8.17;6.63;;;17.10;99.90;;;;;;5061002;28;20220;-75
2021/06/26 05:28:43;;;;;;;7.70;6.53;;;17.00;99.90;;;;;;5063030;28;20176;-82
2021/06/26 05:31:14;;;;;;;6.97;6.27;;;17.00;99.90;;;;;;5057778;28;20624;-79
2021/06/26 05:33:45;;;;;;;10.23;7.37;;;17.10;99.90;;;;;;5064104;28;20196;-79
2021/06/26 05:36:11;;;;;;;9.67;7.70;;;17.10;99.90;;;;;;5070231;28;20655;-77
2021/06/26 05:38:37;;;;;;;9.03;6.83;;;17.10;99.90;;;;;;5072131;28;20173;-80
2021/06/26 05:41:03;;;;;;;10.80;8.67;;;17.10;99.90;;;;;;5071379;28;20629;-76
2021/06/26 05:43:29;;;;;;;9.67;8.23;;;17.10;99.90;;;;;;5065238;28;20180;-78
2021/06/26 05:45:55;;;;;;;9.57;7.33;;;17.20;99.90;;;;;;5067621;28;20204;-79
2021/06/26 05:48:21;;;;;;;9.37;7.50;;;17.30;99.90;;;;;;5076818;28;20168;-74
2021/06/26 05:50:46;;;;;;;13.93;8.50;;;17.30;99.90;;;;;;5077330;28;20184;-75
2021/06/26 05:53:12;;;;;;;10.43;7.67;;;17.30;99.90;;;;;;5064242;28;20178;-79
2021/06/26 05:55:38;;;;;;;13.97;10.50;;;17.30;99.90;;;;;;5061432;28;20218;-78
2021/06/26 05:58:06;;;;;;;10.17;8.53;;;17.30;99.90;;;;;;5064028;28;20219;-75
2021/06/26 06:00:52;;;;;;;15.03;12.27;;;17.30;99.90;;;;;;5062656;28;20161;-79
2021/06/26 06:03:24;;;;;;;12.47;10.37;;;17.30;99.90;;;;;;5055985;28;20188;-75
2021/06/26 06:05:51;;;;;;;10.63;9.00;;;17.40;99.90;;;;;;5055819;28;20208;-80
2021/06/26 06:08:20;;;;;;;11.57;8.60;;;17.30;99.90;;;;;;5055876;28;20169;-78
2021/06/26 06:10:46;;;;;;;10.27;8.13;;;17.30;99.90;;;;;;5055331;28;20181;-79
2021/06/26 06:13:15;;;;;;;9.13;7.87;;;17.30;99.90;;;;;;5055333;28;20191;-80
2021/06/26 06:15:43;;;;;;;9.33;7.73;;;17.40;99.90;;;;;;5055310;28;20169;-77
2021/06/26 06:18:09;;;;;;;9.97;7.77;;;17.30;99.90;;;;;;5055194;28;20172;-79
2021/06/26 06:20:35;;;;;;;9.10;7.37;;;17.30;99.90;;;;;;5055200;28;20180;-81
2021/06/26 06:23:01;;;;;;;11.77;7.83;;;17.20;99.90;;;;;;5055312;28;20712;-79
2021/06/26 06:25:26;;;;;;;11.50;8.57;;;17.20;99.90;;;;;;5055019;28;20300;-80
2021/06/26 06:27:52;;;;;;;11.43;8.03;;;17.20;99.90;;;;;;5055871;28;20173;-79
2021/06/26 06:30:18;;;;;;;12.47;9.37;;;17.30;99.90;;;;;;5055463;28;20185;-78
2021/06/26 06:32:44;;;;;;;12.47;9.50;;;17.20;99.90;;;;;;5054999;28;20191;-80
2021/06/26 06:35:10;;;;;;;12.63;8.40;;;17.30;99.90;;;;;;5058896;28;20178;-79
2021/06/26 06:37:38;;;;;;;15.27;9.57;;;17.30;99.90;;;;;;5055212;28;20172;-78
2021/06/26 06:40:08;;;;;;;18.80;11.13;;;17.30;99.90;;;;;;5054888;28;20169;-78
2021/06/26 06:42:35;;;;;;;17.77;10.83;;;17.30;99.90;;;;;;5055259;28;20258;-79
2021/06/26 06:45:00;;;;;;;19.23;12.10;;;17.40;99.90;;;;;;5054753;28;20212;-81
2021/06/26 06:47:27;;;;;;;20.50;11.93;;;17.40;99.90;;;;;;5054723;28;20200;-78
2021/06/26 06:49:53;;;;;;;18.80;11.87;;;17.30;99.90;;;;;;5055033;28;20231;-80
2021/06/26 06:52:19;;;;;;;17.37;11.70;;;17.20;99.90;;;;;;5055156;28;20222;-78
2021/06/26 06:54:44;;;;;;;19.27;11.33;;;17.20;99.90;;;;;;5054828;28;20173;-80
2021/06/26 06:57:10;;;;;;;19.03;11.37;;;17.30;99.90;;;;;;5054710;28;20552;-77
2021/06/26 06:59:36;;;;;;;15.03;10.00;;;17.40;99.90;;;;;;5053533;28;20215;-80
2021/06/26 07:02:02;;;;;;;14.90;9.97;;;17.50;99.90;;;;;;5054671;28;20201;-79
2021/06/26 07:04:27;;;;;;;16.57;10.33;;;17.50;99.90;;;;;;5055091;28;20273;-78
2021/06/26 07:06:53;;;;;;;20.27;11.60;;;17.60;99.90;;;;;;5055851;28;20700;-76
2021/06/26 07:09:19;;;;;;;19.43;12.87;;;17.60;99.90;;;;;;5054634;28;20223;-80
2021/06/26 07:11:45;;;;;;;19.80;13.53;;;17.50;99.90;;;;;;5054662;28;20181;-79
2021/06/26 07:14:11;;;;;;;21.50;14.37;;;17.50;99.90;;;;;;5054407;28;20256;-75
2021/06/26 07:16:36;;;;;;;26.90;17.83;;;17.70;99.90;;;;;;5055377;28;20165;-79
2021/06/26 07:19:02;;;;;;;28.43;18.13;;;17.60;99.90;;;;;;5053071;28;20165;-77
2021/06/26 07:21:28;;;;;;;27.87;18.80;;;17.70;99.90;;;;;;5054478;28;20180;-81
2021/06/26 07:23:53;;;;;;;24.80;16.67;;;17.90;99.90;;;;;;5054231;28;20173;-74
2021/06/26 07:26:19;;;;;;;31.47;21.57;;;18.00;99.90;;;;;;5070192;28;20555;-79
2021/06/26 07:28:45;;;;;;;30.83;21.83;;;18.00;99.90;;;;;;5074632;28;20169;-74
2021/06/26 07:31:11;;;;;;;33.17;23.07;;;18.10;99.90;;;;;;5072131;28;20197;-74
2021/06/26 07:33:37;;;;;;;30.40;22.93;;;18.30;99.90;;;;;;5072547;28;20197;-79
2021/06/26 07:36:03;;;;;;;28.63;20.07;;;18.20;99.90;;;;;;5072659;28;20161;-76
2021/06/26 07:38:31;;;;;;;27.43;20.50;;;18.30;99.90;;;;;;5063839;28;20173;-75
2021/06/26 07:40:58;;;;;;;29.60;22.03;;;18.50;99.90;;;;;;5063367;28;20153;-80
2021/06/26 07:43:25;;;;;;;28.97;20.93;;;18.60;99.90;;;;;;5055605;28;20161;-78
2021/06/26 07:45:54;;;;;;;29.37;22.50;;;18.80;99.90;;;;;;5051660;28;20205;-79
2021/06/26 07:48:19;;;;;;;30.13;21.10;;;18.90;99.90;;;;;;5055353;28;20169;-81
2021/06/26 07:50:50;;;;;;;27.57;20.60;;;18.90;99.90;;;;;;5055021;28;20169;-78
2021/06/26 07:53:16;;;;;;;31.97;24.17;;;18.90;99.90;;;;;;5055174;28;20165;-80
2021/06/26 07:55:42;;;;;;;33.37;22.67;;;19.00;99.90;;;;;;5056259;28;20177;-80
2021/06/26 07:58:08;;;;;;;30.50;22.53;;;19.00;99.90;;;;;;5056709;28;20223;-77
2021/06/26 08:00:34;;;;;;;29.80;23.63;;;19.10;99.90;;;;;;5063133;28;20166;-75
2021/06/26 08:03:00;;;;;;;31.60;23.30;;;19.20;99.30;;;;;;5064834;28;20158;-75
2021/06/26 08:05:26;;;;;;;26.87;23.00;;;19.20;99.10;;;;;;5065163;28;20190;-79
2021/06/26 08:07:52;;;;;;;32.07;24.93;;;19.30;98.20;;;;;;5065043;28;20233;-80
2021/06/26 08:10:20;;;;;;;27.70;24.07;;;19.20;98.60;;;;;;5062341;28;20297;-78
2021/06/26 08:12:46;;;;;;;28.83;24.17;;;19.00;99.20;;;;;;5062524;28;20237;-77
2021/06/26 08:15:12;;;;;;;31.90;25.40;;;19.10;99.40;;;;;;5063666;28;20161;-79
2021/06/26 08:17:40;;;;;;;30.90;25.37;;;19.20;98.40;;;;;;5064299;28;20172;-81
2021/06/26 08:20:06;;;;;;;32.70;25.50;;;19.20;98.10;;;;;;5062992;28;20252;-79
2021/06/26 08:22:31;;;;;;;31.10;26.07;;;19.20;98.40;;;;;;5064433;28;20183;-79
2021/06/26 08:24:57;;;;;;;30.93;26.00;;;19.30;97.80;;;;;;5063392;28;20214;-80
2021/06/26 08:27:23;;;;;;;28.63;25.47;;;19.50;97.50;;;;;;5067993;28;20177;-80
2021/06/26 08:29:49;;;;;;;28.87;25.77;;;19.60;96.80;;;;;;5070876;28;20181;-77
2021/06/26 08:32:15;;;;;;;31.33;26.10;;;19.70;96.00;;;;;;5073185;28;20174;-76
2021/06/26 08:34:41;;;;;;;29.47;25.47;;;19.70;95.50;;;;;;5072133;28;20195;-73
2021/06/26 08:37:06;;;;;;;29.50;25.43;;;19.60;96.00;;;;;;5071142;28;20154;-76
2021/06/26 08:39:32;;;;;;;30.57;24.83;;;20.00;95.20;;;;;;5073758;28;20158;-73
2021/06/26 08:41:59;;;;;;;29.77;25.57;;;20.20;94.60;;;;;;5072692;28;20240;-76
2021/06/26 08:44:25;;;;;;;27.53;24.60;;;20.40;92.50;;;;;;5069479;28;20213;-77
2021/06/26 08:46:55;;;;;;;28.43;25.27;;;20.50;92.40;;;;;;5065495;28;20161;-82
2021/06/26 08:49:31;;;;;;;29.53;25.60;;;20.70;91.10;;;;;;5065999;28;20161;-80
2021/06/26 08:52:07;;;;;;;31.77;27.10;;;20.80;90.60;;;;;;5066441;28;20610;-81
2021/06/26 08:54:34;;;;;;;33.83;26.93;;;20.80;90.40;;;;;;5062587;28;20175;-80
2021/06/26 08:57:00;;;;;;;29.37;26.27;;;20.60;90.20;;;;;;5067488;28;20184;-77
2021/06/26 08:59:26;;;;;;;29.73;26.63;;;20.50;90.70;;;;;;5068202;28;20176;-78
2021/06/26 09:01:54;;;;;;;30.00;26.90;;;20.40;91.20;;;;;;5068248;28;20539;-82
2021/06/26 09:04:21;;;;;;;30.97;27.53;;;20.20;91.90;;;;;;5069918;28;20193;-77
2021/06/26 09:06:48;;;;;;;29.83;26.60;;;20.10;93.20;;;;;;5071739;28;20209;-78
2021/06/26 09:09:14;;;;;;;31.70;26.57;;;20.20;93.20;;;;;;5072922;28;20604;-79
2021/06/26 09:11:41;;;;;;;29.67;26.00;;;20.30;92.50;;;;;;5072958;28;20221;-79
2021/06/26 09:14:18;;;;;;;29.60;26.43;;;20.60;91.50;;;;;;5071130;28;20172;-77
2021/06/26 09:16:51;;;;;;;30.83;26.50;;;20.70;89.30;;;;;;5070799;28;20262;-77
2021/06/26 09:19:17;;;;;;;29.63;26.13;;;20.90;89.30;;;;;;5073570;28;20152;-78
2021/06/26 09:22:15;;;;;;;31.50;26.90;;;21.00;86.80;;;;;;5078283;28;20178;-76
2021/06/26 09:24:45;;;;;;;27.80;24.77;;;21.10;85.20;;;;;;5076815;28;20203;-78
2021/06/26 09:27:13;;;;;;;27.50;24.53;;;21.20;85.90;;;;;;5078491;28;20185;-79
2021/06/26 09:29:52;;;;;;;29.93;26.50;;;21.30;85.50;;;;;;5077398;28;20149;-77
2021/06/26 09:32:29;;;;;;;29.43;26.23;;;21.50;84.30;;;;;;5071705;28;20218;-76
2021/06/26 09:34:56;;;;;;;27.07;23.77;;;21.50;82.50;;;;;;5074602;28;20199;-77
2021/06/26 09:37:34;;;;;;;25.30;22.57;;;21.40;81.80;;;;;;5069007;28;20173;-75
2021/06/26 09:40:01;;;;;;;28.07;24.60;;;21.00;85.50;;;;;;5066235;28;20175;-82
2021/06/26 09:42:36;;;;;;;27.80;24.83;;;20.70;90.50;;;;;;5066708;28;20169;-83
2021/06/26 09:45:11;;;;;;;26.87;24.10;;;20.80;91.00;;;;;;5067474;28;20208;-78
2021/06/26 09:47:41;;;;;;;26.67;22.93;;;21.10;89.60;;;;;;5067141;28;20217;-77
2021/06/26 09:50:24;;;;;;;28.17;24.53;;;21.30;88.00;;;;;;5072050;28;20191;-75
2021/06/26 09:52:57;;;;;;;27.73;24.80;;;21.60;83.80;;;;;;5073029;28;20168;-74
2021/06/26 09:55:48;;;;;;;28.57;25.57;;;21.90;78.50;;;;;;5067527;28;20174;-79
2021/06/26 09:58:17;;;;;;;29.83;26.63;;;21.70;77.50;;;;;;5062973;28;20601;-78
2021/06/26 10:00:49;;;;;;;29.23;26.07;;;21.80;79.20;;;;;;5066080;28;20247;-78
2021/06/26 10:03:29;;;;;;;28.50;25.50;;;21.80;78.50;;;;;;5063472;28;20291;-77
2021/06/26 10:05:58;;;;;;;27.20;24.00;;;21.90;74.90;;;;;;5060005;28;20213;-76
2021/06/26 10:08:24;;;;;;;28.50;25.20;;;22.00;75.50;;;;;;5059918;28;20167;-76
2021/06/26 10:10:51;;;;;;;27.13;24.33;;;21.50;80.80;;;;;;5063586;28;20171;-75
2021/06/26 10:13:17;;;;;;;30.90;26.70;;;21.40;83.50;;;;;;5062065;28;20185;-81
2021/06/26 10:15:44;;;;;;;29.27;25.13;;;21.20;86.70;;;;;;5061506;28;20175;-81
2021/06/26 10:18:12;;;;;;;28.37;25.33;;;21.10;87.20;;;;;;5064252;28;20199;-76
2021/06/26 10:20:38;;;;;;;28.80;25.73;;;21.40;88.40;;;;;;5065490;28;20192;-80
2021/06/26 10:23:04;;;;;;;30.03;25.80;;;21.60;83.30;;;;;;5064333;28;20172;-79
2021/06/26 10:25:40;;;;;;;28.33;25.33;;;22.00;77.80;;;;;;5067675;28;20196;-80
2021/06/26 10:28:13;;;;;;;27.90;24.97;;;22.40;74.90;;;;;;5068864;28;20186;-79
2021/06/26 10:30:40;;;;;;;25.47;22.87;;;22.70;70.60;;;;;;5061901;28;20661;-79
2021/06/26 10:33:09;;;;;;;26.63;23.87;;;22.50;69.00;;;;;;5063912;28;20178;-79
2021/06/26 10:35:39;;;;;;;29.83;25.03;;;22.50;69.20;;;;;;5062755;28;20519;-80
2021/06/26 10:38:07;;;;;;;27.17;24.27;;;22.50;66.60;;;;;;5064170;28;20207;-81
2021/06/26 10:40:42;;;;;;;27.57;24.57;;;22.60;67.30;;;;;;5064957;28;20245;-80
2021/06/26 10:43:18;;;;;;;27.20;23.57;;;22.60;66.40;;;;;;5066304;28;20184;-76
2021/06/26 10:45:45;;;;;;;28.53;24.30;;;22.90;63.10;;;;;;5063054;28;20229;-77
2021/06/26 10:48:23;;;;;;;27.13;24.30;;;22.90;58.90;;;;;;5061992;28;20633;-78
2021/06/26 10:50:53;;;;;;;27.30;24.43;;;22.80;61.60;;;;;;5057168;28;20215;-76
2021/06/26 10:53:31;;;;;;;26.17;23.53;;;22.70;61.50;;;;;;5059434;28;20232;-76
2021/06/26 10:56:02;;;;;;;26.07;23.30;;;22.90;61.70;;;;;;5057547;28;20178;-77
2021/06/26 10:58:30;;;;;;;25.07;22.40;;;22.80;58.10;;;;;;5067115;28;20174;-78
2021/06/26 11:01:22;;;;;;;24.87;22.27;;;22.50;62.30;;;;;;5073742;28;20188;-79
2021/06/26 11:04:06;;;;;;;27.03;24.33;;;22.40;65.50;;;;;;5075201;28;20183;-77
2021/06/26 11:06:33;;;;;;;26.10;23.07;;;22.30;67.30;;;;;;5075792;28;20208;-80
2021/06/26 11:09:15;;;;;;;25.43;22.73;;;22.30;68.60;;;;;;5056302;28;20177;-77
2021/06/26 11:11:49;;;;;;;26.80;23.40;;;22.10;68.80;;;;;;5073857;28;20649;-80
2021/06/26 11:14:21;;;;;;;27.80;24.87;;;22.30;69.10;;;;;;5075093;28;20191;-79
2021/06/26 11:16:52;;;;;;;24.90;22.40;;;22.60;66.20;;;;;;5076801;28;20331;-78
2021/06/26 11:19:30;;;;;;;27.27;23.47;;;22.80;61.10;;;;;;5060262;28;20192;-76
2021/06/26 11:21:59;;;;;;;24.80;22.30;;;23.00;57.90;;;;;;5075723;28;20204;-79
2021/06/26 11:24:54;;;;;;;25.40;22.70;;;23.20;57.70;;;;;;5076392;28;20185;-77
2021/06/26 11:27:21;;;;;;;23.67;21.27;;;23.20;56.70;;;;;;5073415;28;20196;-77
2021/06/26 11:29:49;;;;;;;26.17;23.37;;;23.10;58.20;;;;;;5075038;28;20179;-80
2021/06/26 11:32:43;;;;;;;26.03;22.63;;;23.10;57.10;;;;;;5076771;28;20193;-80
2021/06/26 11:35:33;;;;;;;22.53;20.23;;;23.20;56.00;;;;;;5075474;28;20207;-77
2021/06/26 11:38:27;;;;;;;22.37;19.93;;;23.50;52.90;;;;;;5075197;28;20159;-78
2021/06/26 11:41:11;;;;;;;21.37;19.17;;;23.60;48.60;;;;;;5074569;28;20181;-76
2021/06/26 11:43:48;;;;;;;22.70;20.33;;;23.80;45.60;;;;;;5075047;28;20165;-80
2021/06/26 11:46:16;;;;;;;23.20;19.90;;;23.80;42.50;;;;;;5057887;28;20206;-79
2021/06/26 11:49:07;;;;;;;22.73;20.43;;;23.70;45.40;;;;;;5072777;28;20180;-76
2021/06/26 11:51:33;;;;;;;22.67;20.37;;;23.30;51.30;;;;;;5064196;28;20187;-80
2021/06/26 11:53:58;;;;;;;22.93;20.37;;;23.40;51.50;;;;;;5057488;28;20174;-78
2021/06/26 11:56:24;;;;;;;22.43;20.20;;;23.40;52.70;;;;;;5067665;28;20637;-80
2021/06/26 11:58:50;;;;;;;22.57;20.17;;;23.40;52.40;;;;;;5062624;28;20169;-78
2021/06/26 12:01:29;;;;;;;23.97;21.47;;;23.50;53.30;;;;;;5060880;28;20177;-78
2021/06/26 12:03:55;;;;;;;24.90;21.73;;;23.20;54.30;;;;;;5068194;28;20188;-76
2021/06/26 12:06:23;;;;;;;22.87;20.57;;;23.00;56.50;;;;;;5064773;28;20206;-78
2021/06/26 12:08:57;;;;;;;22.63;20.23;;;22.90;58.60;;;;;;5066450;28;20588;-77
2021/06/26 12:11:26;;;;;;;22.10;19.67;;;22.90;60.70;;;;;;5063965;28;20165;-77
2021/06/26 12:13:55;;;;;;;23.63;19.90;;;23.10;60.80;;;;;;5065879;28;20197;-76
2021/06/26 12:16:36;;;;;;;21.27;18.90;;;23.10;56.20;;;;;;5066310;28;20221;-76
2021/06/26 12:19:11;;;;;;;24.83;20.07;;;23.20;55.90;;;;;;5067849;28;20181;-80
2021/06/26 12:21:53;;;;;;;22.27;19.83;;;23.00;61.20;;;;;;5067353;28;20176;-76
2021/06/26 12:24:40;;;;;;;22.43;20.13;;;22.70;67.80;;;;;;5068454;28;20232;-75
2021/06/26 12:27:19;;;;;;;23.67;21.17;;;22.60;69.40;;;;;;5063544;28;20158;-76
2021/06/26 12:29:57;;;;;;;21.30;18.90;;;22.30;74.50;;;;;;5061112;28;20314;-79
2021/06/26 12:32:32;;;;;;;21.40;19.30;;;22.20;73.30;;;;;;5062094;28;20154;-77
2021/06/26 12:34:59;;;;;;;21.70;19.47;;;22.40;72.20;;;;;;5062119;28;20177;-76
2021/06/26 12:37:31;;;;;;;23.73;21.23;;;22.50;71.20;;;;;;5060211;28;20157;-77
2021/06/26 12:40:18;;;;;;;24.10;21.60;;;22.60;70.30;;;;;;5060830;28;20177;-76